Mazatlan Airport, Mexico

7:53 PM MST on February 08, 2016 (GMT -0700)
Gen Rafael Buelna International | | Change Station
CLOSE
Current Station
Airport
Location: Mazatlan Airport,
Elevation: 33 ft
Nearby Weather Stations

Elev 33 ft 23.16 °N, 106.27 °W | Updated 1 hour ago

Overcast
Overcast
70 °F
Feels Like 70 °F
N
5
Wind Variable Wind from West

Today
High -- | Low -- °F
--% Chance of Precip.
Yesterday
High -- | Low -- °F
Precip. -- in
Pressure 29.90 in
Visibility 10.0 miles
Clouds Mostly Cloudy 9000 ft
Overcast 24000 ft
Dew Point 63 °F
Humidity 78%
Rainfall 0.00 in
Snow Depth Not available.
6:41 AM 5:56 PM
New Moon, 0% visible
METAR MMMZ 090144Z 27004KT 10SM BKN090 OVC240 21/17 A2990 RMK 8/077 HZY BINOVC
Pressure 29.90 in
Visibility 10.0 miles
Clouds Mostly Cloudy 9000 ft
Overcast 24000 ft
Dew Point 63 °F
Humidity 78%
Rainfall 0.00 in
Snow Depth Not available.
6:41 AM 5:56 PM
New Moon, 0% visible
METAR MMMZ 090144Z 27004KT 10SM BKN090 OVC240 21/17 A2990 RMK 8/077 HZY BINOVC

10-Day Weather Forecast

No radar image for this location.
×

Almanac

Astronomy

Feb. 08, 2016 Rise Set
Actual Time
Civil Twilight
Nautical Twilight
Astronomical Twilight
Moon
Length of Visible Light
Length of Day
Tomorrow will be .
, % of the Moon is Illuminated

Today's Extremes

Country Highs Country Lows

Community

WunderPhotos

Upload Photos

1,891,527 photos uploaded!

WunderBlog® & News

Nearby

Air Quality

  Air Quality AQ Index Pollutant
Not available.

Snow Depth

Station Depth Elevation

Earthquake Activity

City Distance Mag. Time & Date
Minimum magnitude displayed is 2.5.

Coastal Water Temperatures

Place Temperature

Stations

Nearby Weather Stations

Station Location Temp. Windchill Dew Point Humidity Wind Precip. Elev Updated Type